Terminal Aerodrome Forecast
Issued by NWS

Home | Current Version | Previous Version | Text Only | Print | Product List | Glossary On
Versions: 1 2 3 4 5 6 7 8 9 10 11 12 13
000
FTPA31 PHFO 260600 AAA
TAFKOA
TAF AMD
PHKO 260612Z 2606/2706 21008KT P6SM SCT035 BKN060
      TEMPO 2606/2610 BKN030
     FM261200 09008KT P6SM SCT050
     FM261900 24008KT P6SM SCT050
     FM270000 21008KT P6SM BKN050=

USA.gov is the U.S. government's official web portal to all federal, state and local government web resources and services.